sensor_id;sensor_type;location;lat;lon;timestamp;temperature;humidity
73833;SHT30;62179;48.444;-4.464;2023-02-26T01:20:48;7.96;66.02
73833;SHT30;62179;48.444;-4.464;2023-02-26T01:23:17;7.94;65.96
73833;SHT30;62179;48.444;-4.464;2023-02-26T01:25:52;7.91;66.13
73833;SHT30;62179;48.444;-4.464;2023-02-26T01:28:19;7.84;66.15
73833;SHT30;62179;48.444;-4.464;2023-02-26T01:30:45;7.82;66.17
73833;SHT30;62179;48.444;-4.464;2023-02-26T09:00:25;8.52;63.97
73833;SHT30;62179;48.444;-4.464;2023-02-26T09:02:50;8.46;61.73
73833;SHT30;62179;48.444;-4.464;2023-02-26T09:05:17;8.37;62.84
73833;SHT30;62179;48.444;-4.464;2023-02-26T09:07:43;8.39;61.93
73833;SHT30;62179;48.444;-4.464;2023-02-26T09:10:17;8.37;62.82
73833;SHT30;62179;48.444;-4.464;2023-02-26T09:12:42;8.49;61.53
73833;SHT30;62179;48.444;-4.464;2023-02-26T09:15:09;8.59;63.39
73833;SHT30;62179;48.444;-4.464;2023-02-26T09:17:35;8.76;63.32
73833;SHT30;62179;48.444;-4.464;2023-02-26T09:20:04;8.83;62.24
73833;SHT30;62179;48.444;-4.464;2023-02-26T09:22:29;8.94;62.27
73833;SHT30;62179;48.444;-4.464;2023-02-26T09:24:56;9.04;61.72
73833;SHT30;62179;48.444;-4.464;2023-02-26T09:27:25;9.14;61.92
73833;SHT30;62179;48.444;-4.464;2023-02-26T09:29:52;9.18;61.38
73833;SHT30;62179;48.444;-4.464;2023-02-26T09:32:18;9.15;60.04
73833;SHT30;62179;48.444;-4.464;2023-02-26T09:34:46;9.07;60.94
73833;SHT30;62179;48.444;-4.464;2023-02-26T09:37:12;9.08;61.26
73833;SHT30;62179;48.444;-4.464;2023-02-26T09:39:37;9.10;60.67
73833;SHT30;62179;48.444;-4.464;2023-02-26T09:44:53;9.19;60.72
73833;SHT30;62179;48.444;-4.464;2023-02-26T09:47:43;9.25;60.87
73833;SHT30;62179;48.444;-4.464;2023-02-26T09:53:04;9.38;60.89
73833;SHT30;62179;48.444;-4.464;2023-02-26T09:55:45;9.42;60.52
73833;SHT30;62179;48.444;-4.464;2023-02-26T09:58:32;9.40;60.56
73833;SHT30;62179;48.444;-4.464;2023-02-26T10:01:21;9.32;58.60
73833;SHT30;62179;48.444;-4.464;2023-02-26T10:04:12;9.31;60.95
73833;SHT30;62179;48.444;-4.464;2023-02-26T10:10:08;9.24;60.79
73833;SHT30;62179;48.444;-4.464;2023-02-26T10:12:46;9.32;61.20
73833;SHT30;62179;48.444;-4.464;2023-02-26T10:15:27;9.38;59.81
73833;SHT30;62179;48.444;-4.464;2023-02-26T10:21:03;9.49;60.88
73833;SHT30;62179;48.444;-4.464;2023-02-26T10:27:05;9.79;61.04
73833;SHT30;62179;48.444;-4.464;2023-02-26T10:29:35;9.84;58.96
73833;SHT30;62179;48.444;-4.464;2023-02-26T10:32:14;9.97;58.80
73833;SHT30;62179;48.444;-4.464;2023-02-26T10:40:32;11.30;56.48
73833;SHT30;62179;48.444;-4.464;2023-02-26T10:43:21;11.57;54.85
73833;SHT30;62179;48.444;-4.464;2023-02-26T10:48:58;11.74;55.53
73833;SHT30;62179;48.444;-4.464;2023-02-26T10:51:32;11.95;53.73
73833;SHT30;62179;48.444;-4.464;2023-02-26T10:54:15;12.13;53.86
73833;SHT30;62179;48.444;-4.464;2023-02-26T10:56:41;12.18;53.25
73833;SHT30;62179;48.444;-4.464;2023-02-26T10:59:06;12.30;54.41
73833;SHT30;62179;48.444;-4.464;2023-02-26T11:01:32;12.84;53.27
73833;SHT30;62179;48.444;-4.464;2023-02-26T11:04:08;13.39;53.44
73833;SHT30;62179;48.444;-4.464;2023-02-26T11:06:44;13.35;51.53
73833;SHT30;62179;48.444;-4.464;2023-02-26T11:09:24;13.18;51.68
73833;SHT30;62179;48.444;-4.464;2023-02-26T11:14:37;12.50;53.38
73833;SHT30;62179;48.444;-4.464;2023-02-26T11:17:09;12.29;53.28
73833;SHT30;62179;48.444;-4.464;2023-02-26T11:19:49;12.06;54.35
73833;SHT30;62179;48.444;-4.464;2023-02-26T11:22:17;11.88;53.39
73833;SHT30;62179;48.444;-4.464;2023-02-26T11:24:57;11.64;55.57
73833;SHT30;62179;48.444;-4.464;2023-02-26T11:27:36;11.13;59.05
73833;SHT30;62179;48.444;-4.464;2023-02-26T11:30:24;10.73;60.65
73833;SHT30;62179;48.444;-4.464;2023-02-26T11:32:52;10.52;61.98
73833;SHT30;62179;48.444;-4.464;2023-02-26T11:35:22;10.30;63.85
73833;SHT30;62179;48.444;-4.464;2023-02-26T11:37:51;9.94;74.18
73833;SHT30;62179;48.444;-4.464;2023-02-26T11:42:54;9.82;65.31
73833;SHT30;62179;48.444;-4.464;2023-02-26T11:45:21;9.83;64.18
73833;SHT30;62179;48.444;-4.464;2023-02-26T11:48:09;9.93;63.96
73833;SHT30;62179;48.444;-4.464;2023-02-26T11:50:56;10.07;65.97
73833;SHT30;62179;48.444;-4.464;2023-02-26T11:53:48;10.27;62.81
73833;SHT30;62179;48.444;-4.464;2023-02-26T11:56:34;10.45;63.71
73833;SHT30;62179;48.444;-4.464;2023-02-26T11:59:17;10.76;62.03
73833;SHT30;62179;48.444;-4.464;2023-02-26T12:01:52;11.03;60.64
73833;SHT30;62179;48.444;-4.464;2023-02-26T12:04:21;11.19;59.76
73833;SHT30;62179;48.444;-4.464;2023-02-26T12:06:50;11.34;59.82
73833;SHT30;62179;48.444;-4.464;2023-02-26T12:09:16;11.42;59.15
73833;SHT30;62179;48.444;-4.464;2023-02-26T12:14:40;11.35;57.74
73833;SHT30;62179;48.444;-4.464;2023-02-26T12:37:26;10.31;58.17
73833;SHT30;62179;48.444;-4.464;2023-02-26T12:46:09;10.22;59.68
73833;SHT30;62179;48.444;-4.464;2023-02-26T12:59:41;9.82;59.65
73833;SHT30;62179;48.444;-4.464;2023-02-26T13:12:47;9.74;60.27
73833;SHT30;62179;48.444;-4.464;2023-02-26T13:20:40;9.83;58.78
73833;SHT30;62179;48.444;-4.464;2023-02-26T13:23:18;9.90;57.34
73833;SHT30;62179;48.444;-4.464;2023-02-26T13:25:52;10.03;58.00
73833;SHT30;62179;48.444;-4.464;2023-02-26T13:31:25;10.25;58.29
73833;SHT30;62179;48.444;-4.464;2023-02-26T13:33:57;10.25;57.30
73833;SHT30;62179;48.444;-4.464;2023-02-26T13:36:33;10.27;56.93
73833;SHT30;62179;48.444;-4.464;2023-02-26T13:39:14;10.25;56.48
73833;SHT30;62179;48.444;-4.464;2023-02-26T13:47:36;10.21;57.64
73833;SHT30;62179;48.444;-4.464;2023-02-26T13:53:04;10.21;58.09
73833;SHT30;62179;48.444;-4.464;2023-02-26T13:55:45;10.18;57.46
73833;SHT30;62179;48.444;-4.464;2023-02-26T13:58:33;10.13;57.71
73833;SHT30;62179;48.444;-4.464;2023-02-26T14:01:15;10.11;57.50
73833;SHT30;62179;48.444;-4.464;2023-02-26T14:03:47;10.17;58.31
73833;SHT30;62179;48.444;-4.464;2023-02-26T14:06:24;10.28;57.05
73833;SHT30;62179;48.444;-4.464;2023-02-26T14:09:35;10.30;57.38
73833;SHT30;62179;48.444;-4.464;2023-02-26T14:20:29;9.97;59.81
73833;SHT30;62179;48.444;-4.464;2023-02-26T14:25:49;9.86;58.61
73833;SHT30;62179;48.444;-4.464;2023-02-26T14:31:20;9.59;58.31
73833;SHT30;62179;48.444;-4.464;2023-02-26T14:36:47;9.50;58.18
73833;SHT30;62179;48.444;-4.464;2023-02-26T14:39:49;9.42;58.15
73833;SHT30;62179;48.444;-4.464;2023-02-26T14:42:33;9.35;58.99
73833;SHT30;62179;48.444;-4.464;2023-02-26T14:45:33;9.38;58.61
73833;SHT30;62179;48.444;-4.464;2023-02-26T14:48:03;9.39;59.39
73833;SHT30;62179;48.444;-4.464;2023-02-26T14:50:54;9.45;59.05
73833;SHT30;62179;48.444;-4.464;2023-02-26T14:56:47;9.77;59.52
73833;SHT30;62179;48.444;-4.464;2023-02-26T14:59:50;9.80;58.83
73833;SHT30;62179;48.444;-4.464;2023-02-26T15:15:55;9.39;54.42
73833;SHT30;62179;48.444;-4.464;2023-02-26T15:24:04;9.43;55.20
73833;SHT30;62179;48.444;-4.464;2023-02-26T15:26:34;9.42;54.80
73833;SHT30;62179;48.444;-4.464;2023-02-26T15:29:05;9.47;54.87
73833;SHT30;62179;48.444;-4.464;2023-02-26T15:34:11;9.49;53.51
73833;SHT30;62179;48.444;-4.464;2023-02-26T15:36:43;9.38;53.84
73833;SHT30;62179;48.444;-4.464;2023-02-26T15:39:15;9.35;54.81
73833;SHT30;62179;48.444;-4.464;2023-02-26T15:41:41;9.39;55.45
73833;SHT30;62179;48.444;-4.464;2023-02-26T15:44:15;9.29;54.46
73833;SHT30;62179;48.444;-4.464;2023-02-26T15:46:57;9.22;55.20
73833;SHT30;62179;48.444;-4.464;2023-02-26T15:49:39;9.21;55.09
73833;SHT30;62179;48.444;-4.464;2023-02-26T15:52:07;9.18;53.71
73833;SHT30;62179;48.444;-4.464;2023-02-26T15:54:39;9.01;53.03
73833;SHT30;62179;48.444;-4.464;2023-02-26T15:57:26;8.91;54.30
73833;SHT30;62179;48.444;-4.464;2023-02-26T15:59:59;8.91;53.70
73833;SHT30;62179;48.444;-4.464;2023-02-26T16:02:28;8.89;54.02
73833;SHT30;62179;48.444;-4.464;2023-02-26T16:04:55;8.87;53.41
73833;SHT30;62179;48.444;-4.464;2023-02-26T16:07:21;8.89;54.19
73833;SHT30;62179;48.444;-4.464;2023-02-26T16:09:50;8.92;54.27
73833;SHT30;62179;48.444;-4.464;2023-02-26T16:12:28;8.87;53.43
73833;SHT30;62179;48.444;-4.464;2023-02-26T16:15:45;8.84;53.24
73833;SHT30;62179;48.444;-4.464;2023-02-26T16:17:53;8.80;52.27
73833;SHT30;62179;48.444;-4.464;2023-02-26T16:20:23;8.77;51.83
73833;SHT30;62179;48.444;-4.464;2023-02-26T16:22:57;8.68;51.33
73833;SHT30;62179;48.444;-4.464;2023-02-26T16:25:53;8.66;51.22
73833;SHT30;62179;48.444;-4.464;2023-02-26T16:28:43;8.60;50.23
73833;SHT30;62179;48.444;-4.464;2023-02-26T16:31:48;8.54;50.98
73833;SHT30;62179;48.444;-4.464;2023-02-26T16:34:32;8.53;51.51
73833;SHT30;62179;48.444;-4.464;2023-02-26T16:48:55;8.17;47.97
73833;SHT30;62179;48.444;-4.464;2023-02-26T16:51:24;8.05;48.86
73833;SHT30;62179;48.444;-4.464;2023-02-26T16:54:08;8.02;50.33
73833;SHT30;62179;48.444;-4.464;2023-02-26T16:56:41;8.01;50.70
73833;SHT30;62179;48.444;-4.464;2023-02-26T16:59:12;7.95;49.29
73833;SHT30;62179;48.444;-4.464;2023-02-26T17:01:52;7.91;50.17
73833;SHT30;62179;48.444;-4.464;2023-02-26T17:04:22;7.81;50.48
73833;SHT30;62179;48.444;-4.464;2023-02-26T17:06:48;7.81;51.01
73833;SHT30;62179;48.444;-4.464;2023-02-26T17:09:33;7.78;51.13
73833;SHT30;62179;48.444;-4.464;2023-02-26T17:12:12;7.75;51.69
73833;SHT30;62179;48.444;-4.464;2023-02-26T17:14:41;7.75;52.15
73833;SHT30;62179;48.444;-4.464;2023-02-26T17:17:07;7.73;51.28
73833;SHT30;62179;48.444;-4.464;2023-02-26T17:19:33;7.75;52.57
73833;SHT30;62179;48.444;-4.464;2023-02-26T17:21:59;7.74;52.71
73833;SHT30;62179;48.444;-4.464;2023-02-26T17:24:37;7.71;51.80
73833;SHT30;62179;48.444;-4.464;2023-02-26T17:27:12;7.67;52.20
73833;SHT30;62179;48.444;-4.464;2023-02-26T17:29:41;7.67;52.68
73833;SHT30;62179;48.444;-4.464;2023-02-26T17:32:15;7.61;53.23
73833;SHT30;62179;48.444;-4.464;2023-02-26T17:34:41;7.56;53.31
73833;SHT30;62179;48.444;-4.464;2023-02-26T17:37:10;7.56;53.69
73833;SHT30;62179;48.444;-4.464;2023-02-26T17:39:36;7.51;53.60
73833;SHT30;62179;48.444;-4.464;2023-02-26T17:42:01;7.50;54.72
73833;SHT30;62179;48.444;-4.464;2023-02-26T17:44:27;7.50;53.86
73833;SHT30;62179;48.444;-4.464;2023-02-26T17:46:53;7.50;54.54
73833;SHT30;62179;48.444;-4.464;2023-02-26T17:49:19;7.47;55.00
73833;SHT30;62179;48.444;-4.464;2023-02-26T17:51:44;7.48;55.80
73833;SHT30;62179;48.444;-4.464;2023-02-26T17:54:10;7.48;55.25
73833;SHT30;62179;48.444;-4.464;2023-02-26T17:56:36;7.47;55.14
73833;SHT30;62179;48.444;-4.464;2023-02-26T17:59:03;7.42;55.47
73833;SHT30;62179;48.444;-4.464;2023-02-26T18:01:29;7.38;55.95
73833;SHT30;62179;48.444;-4.464;2023-02-26T18:03:56;7.31;55.89
73833;SHT30;62179;48.444;-4.464;2023-02-26T18:06:22;7.26;55.80
73833;SHT30;62179;48.444;-4.464;2023-02-26T18:08:49;7.24;55.97
73833;SHT30;62179;48.444;-4.464;2023-02-26T18:11:16;7.23;55.65
73833;SHT30;62179;48.444;-4.464;2023-02-26T18:13:42;7.20;55.87
73833;SHT30;62179;48.444;-4.464;2023-02-26T18:16:17;7.17;55.98
73833;SHT30;62179;48.444;-4.464;2023-02-26T18:18:43;7.16;56.37
73833;SHT30;62179;48.444;-4.464;2023-02-26T18:21:09;7.12;56.33
73833;SHT30;62179;48.444;-4.464;2023-02-26T18:23:35;7.15;56.02
73833;SHT30;62179;48.444;-4.464;2023-02-26T18:26:00;7.10;56.12
73833;SHT30;62179;48.444;-4.464;2023-02-26T18:28:28;7.08;56.40
73833;SHT30;62179;48.444;-4.464;2023-02-26T18:30:54;7.06;56.49
73833;SHT30;62179;48.444;-4.464;2023-02-26T18:33:21;7.00;56.24
73833;SHT30;62179;48.444;-4.464;2023-02-26T18:35:50;6.98;56.06
73833;SHT30;62179;48.444;-4.464;2023-02-26T18:38:21;6.99;56.76
73833;SHT30;62179;48.444;-4.464;2023-02-26T18:40:48;6.96;56.72
73833;SHT30;62179;48.444;-4.464;2023-02-26T18:43:17;6.98;57.00
73833;SHT30;62179;48.444;-4.464;2023-02-26T18:45:45;6.96;56.76
73833;SHT30;62179;48.444;-4.464;2023-02-26T18:48:13;6.92;56.89
73833;SHT30;62179;48.444;-4.464;2023-02-26T18:50:43;6.92;57.09
73833;SHT30;62179;48.444;-4.464;2023-02-26T18:53:09;6.91;57.65
73833;SHT30;62179;48.444;-4.464;2023-02-26T18:55:34;6.88;57.33
73833;SHT30;62179;48.444;-4.464;2023-02-26T18:58:00;6.87;57.54
73833;SHT30;62179;48.444;-4.464;2023-02-26T19:00:25;6.84;57.78
73833;SHT30;62179;48.444;-4.464;2023-02-26T19:02:53;6.81;58.43
73833;SHT30;62179;48.444;-4.464;2023-02-26T19:05:20;6.79;57.78
73833;SHT30;62179;48.444;-4.464;2023-02-26T19:07:49;6.79;58.45
73833;SHT30;62179;48.444;-4.464;2023-02-26T19:10:16;6.81;58.23
73833;SHT30;62179;48.444;-4.464;2023-02-26T19:12:43;6.82;58.43
73833;SHT30;62179;48.444;-4.464;2023-02-26T19:15:10;6.78;58.42
73833;SHT30;62179;48.444;-4.464;2023-02-26T19:17:37;6.77;58.67
73833;SHT30;62179;48.444;-4.464;2023-02-26T19:20:03;6.75;58.49
73833;SHT30;62179;48.444;-4.464;2023-02-26T19:22:29;6.74;58.88
73833;SHT30;62179;48.444;-4.464;2023-02-26T19:24:54;6.75;58.82
73833;SHT30;62179;48.444;-4.464;2023-02-26T19:27:20;6.75;59.30
73833;SHT30;62179;48.444;-4.464;2023-02-26T19:29:45;6.75;58.99
73833;SHT30;62179;48.444;-4.464;2023-02-26T19:32:11;6.78;59.41
73833;SHT30;62179;48.444;-4.464;2023-02-26T19:34:36;6.82;59.26
73833;SHT30;62179;48.444;-4.464;2023-02-26T19:37:02;6.82;59.22
73833;SHT30;62179;48.444;-4.464;2023-02-26T19:39:27;6.79;59.65
73833;SHT30;62179;48.444;-4.464;2023-02-26T19:41:53;6.84;59.49
73833;SHT30;62179;48.444;-4.464;2023-02-26T19:44:22;6.82;59.73
73833;SHT30;62179;48.444;-4.464;2023-02-26T19:50:07;6.82;60.15
73833;SHT30;62179;48.444;-4.464;2023-02-26T19:52:33;6.79;59.91
73833;SHT30;62179;48.444;-4.464;2023-02-26T19:55:02;6.75;60.10
73833;SHT30;62179;48.444;-4.464;2023-02-26T19:57:28;6.74;60.55
73833;SHT30;62179;48.444;-4.464;2023-02-26T19:59:56;6.77;60.44
73833;SHT30;62179;48.444;-4.464;2023-02-26T20:02:39;6.77;60.48
73833;SHT30;62179;48.444;-4.464;2023-02-26T20:05:05;6.79;60.85
73833;SHT30;62179;48.444;-4.464;2023-02-26T20:07:32;6.81;60.96
73833;SHT30;62179;48.444;-4.464;2023-02-26T20:09:57;6.81;60.63
73833;SHT30;62179;48.444;-4.464;2023-02-26T20:12:25;6.82;60.99
73833;SHT30;62179;48.444;-4.464;2023-02-26T20:14:50;6.81;60.82
73833;SHT30;62179;48.444;-4.464;2023-02-26T20:17:15;6.79;60.87
73833;SHT30;62179;48.444;-4.464;2023-02-26T20:19:41;6.78;61.25
73833;SHT30;62179;48.444;-4.464;2023-02-26T20:22:08;6.79;61.31
73833;SHT30;62179;48.444;-4.464;2023-02-26T20:24:33;6.79;61.29
73833;SHT30;62179;48.444;-4.464;2023-02-26T20:27:03;6.82;61.64
73833;SHT30;62179;48.444;-4.464;2023-02-26T20:29:28;6.82;61.53
73833;SHT30;62179;48.444;-4.464;2023-02-26T20:31:54;6.84;61.61
73833;SHT30;62179;48.444;-4.464;2023-02-26T20:34:19;6.79;61.93
73833;SHT30;62179;48.444;-4.464;2023-02-26T20:36:45;6.84;61.73
73833;SHT30;62179;48.444;-4.464;2023-02-26T20:39:24;6.82;61.96
73833;SHT30;62179;48.444;-4.464;2023-02-26T20:41:50;6.79;61.76
73833;SHT30;62179;48.444;-4.464;2023-02-26T20:44:15;6.78;62.17
73833;SHT30;62179;48.444;-4.464;2023-02-26T20:46:41;6.81;61.84
73833;SHT30;62179;48.444;-4.464;2023-02-26T20:49:06;6.79;62.16
73833;SHT30;62179;48.444;-4.464;2023-02-26T20:51:39;6.81;62.12
73833;SHT30;62179;48.444;-4.464;2023-02-26T20:54:04;6.84;62.11
73833;SHT30;62179;48.444;-4.464;2023-02-26T20:56:30;6.82;62.03
73833;SHT30;62179;48.444;-4.464;2023-02-26T20:58:55;6.79;62.28
73833;SHT30;62179;48.444;-4.464;2023-02-26T21:01:21;6.79;62.30
73833;SHT30;62179;48.444;-4.464;2023-02-26T21:03:47;6.78;62.26
73833;SHT30;62179;48.444;-4.464;2023-02-26T21:06:12;6.75;62.41
73833;SHT30;62179;48.444;-4.464;2023-02-26T21:08:38;6.72;62.78
73833;SHT30;62179;48.444;-4.464;2023-02-26T21:11:03;6.77;62.63
73833;SHT30;62179;48.444;-4.464;2023-02-26T21:13:29;6.75;62.62
73833;SHT30;62179;48.444;-4.464;2023-02-26T21:15:54;6.74;62.89
73833;SHT30;62179;48.444;-4.464;2023-02-26T21:18:21;6.68;63.04
73833;SHT30;62179;48.444;-4.464;2023-02-26T21:20:47;6.65;63.32
73833;SHT30;62179;48.444;-4.464;2023-02-26T21:23:13;6.67;63.21
73833;SHT30;62179;48.444;-4.464;2023-02-26T21:25:38;6.65;63.36
73833;SHT30;62179;48.444;-4.464;2023-02-26T21:28:04;6.64;63.20
73833;SHT30;62179;48.444;-4.464;2023-02-26T21:30:30;6.63;63.41
73833;SHT30;62179;48.444;-4.464;2023-02-26T21:32:55;6.59;63.57
73833;SHT30;62179;48.444;-4.464;2023-02-26T21:35:21;6.59;63.52
73833;SHT30;62179;48.444;-4.464;2023-02-26T21:37:46;6.55;63.27
73833;SHT30;62179;48.444;-4.464;2023-02-26T21:40:14;6.49;63.42
73833;SHT30;62179;48.444;-4.464;2023-02-26T21:42:40;6.49;63.31
73833;SHT30;62179;48.444;-4.464;2023-02-26T21:45:06;6.49;63.19
73833;SHT30;62179;48.444;-4.464;2023-02-26T21:47:32;6.49;63.11
73833;SHT30;62179;48.444;-4.464;2023-02-26T21:49:57;6.48;62.84
73833;SHT30;62179;48.444;-4.464;2023-02-26T21:52:23;6.49;62.67
73833;SHT30;62179;48.444;-4.464;2023-02-26T21:54:53;6.45;62.68
73833;SHT30;62179;48.444;-4.464;2023-02-26T21:57:22;6.41;62.54
73833;SHT30;62179;48.444;-4.464;2023-02-26T21:59:47;6.40;62.50
73833;SHT30;62179;48.444;-4.464;2023-02-26T22:02:13;6.37;62.22
73833;SHT30;62179;48.444;-4.464;2023-02-26T22:04:38;6.33;62.42
73833;SHT30;62179;48.444;-4.464;2023-02-26T22:07:04;6.28;62.40
73833;SHT30;62179;48.444;-4.464;2023-02-26T22:09:33;6.27;62.46
73833;SHT30;62179;48.444;-4.464;2023-02-26T22:11:58;6.28;62.31
73833;SHT30;62179;48.444;-4.464;2023-02-26T22:14:23;6.31;62.35
73833;SHT30;62179;48.444;-4.464;2023-02-26T22:16:49;6.28;62.38
73833;SHT30;62179;48.444;-4.464;2023-02-26T22:19:14;6.27;62.20
73833;SHT30;62179;48.444;-4.464;2023-02-26T22:21:40;6.24;62.15
73833;SHT30;62179;48.444;-4.464;2023-02-26T22:24:05;6.19;62.31
73833;SHT30;62179;48.444;-4.464;2023-02-26T22:26:31;6.17;62.50
